Dyer, Arkansas
Current Conditions -  °F | °C
As of 3:53 AM on Tuesday 27 Jan 2015 (Local Time) from KFSM Reporting Station
Clear Clear  
Wind Chill: 35°   Ceiling: Unl
Heat Index: 39°   Visibility: 10mi
Dew Point: 34°   Wind: 6mph
Humidity: 82%   Direction: 260°W
Pressure: 30.06"   Gusts: NA
Location:  35.49°N, 94.14°W
Report Text: KFSM 270953Z AUTO 26005KT 10SM CLR 04/01 A3006 RMK AO2 SLP178 T00390011
Loading
Personal Weather Stations






























Interactive Weather Map New forecast layout! Learn more

10-Day Weather Forecast

Advertisements
Track Severe Weather on mobile